Time;durP1;ratioP1;P1;durP2;ratioP2;P2;SDS_P1;SDS_P2;PMS_P1;PMS_P2;Temp;Humidity;BMP_temperature;BMP_pressure;BME280_temperature;BME280_humidity;BME280_pressure;Samples;Min_cycle;Max_cycle;Signal;HPM_P1;HPM_P2
2019/09/29 00:00:59;;;;;;;4.9;2.5;;;;;;;10.87;100;95351.12;;;;
2019/09/29 00:02:00;;;;;;;4.9;2.5;;;;;;;10.87;100;95351.12;;;;
2019/09/29 00:03:02;;;;;;;4.9;2.5;;;;;;;10.87;100;95351.12;;;;
2019/09/29 00:04:04;;;;;;;4.9;2.5;;;;;;;10.87;100;95351.12;;;;
2019/09/29 00:05:05;;;;;;;4.9;2.5;;;;;;;10.87;100;95351.12;;;;
2019/09/29 00:06:08;;;;;;;5;2.1;;;;;;;10.68;100;95351.9;;;;
2019/09/29 00:07:09;;;;;;;5;2.1;;;;;;;10.68;100;95351.9;;;;
2019/09/29 00:08:10;;;;;;;5;2.1;;;;;;;10.68;100;95351.9;;;;
2019/09/29 00:09:12;;;;;;;3.25;1.9;;;;;;;10.72;100;95355.66;;;;
2019/09/29 00:10:13;;;;;;;3.25;1.9;;;;;;;10.72;100;95355.66;;;;
2019/09/29 00:11:17;;;;;;;4;2.15;;;;;;;10.83;100;95348.08;;;;
2019/09/29 00:12:18;;;;;;;4;2.15;;;;;;;10.83;100;95348.08;;;;
2019/09/29 00:13:19;;;;;;;4;2.15;;;;;;;10.83;100;95348.08;;;;
2019/09/29 00:14:21;;;;;;;3.45;2.05;;;;;;;10.94;100;95348.19;;;;
2019/09/29 00:15:22;;;;;;;3.45;2.05;;;;;;;10.94;100;95348.19;;;;
2019/09/29 00:16:24;;;;;;;4;2;;;;;;;11.05;100;95345.59;;;;
2019/09/29 00:17:25;;;;;;;4;2;;;;;;;11.05;100;95345.59;;;;
2019/09/29 00:18:26;;;;;;;4;2;;;;;;;11.05;100;95345.59;;;;
2019/09/29 00:19:28;;;;;;;3.2;2.2;;;;;;;11.16;100;95333.12;;;;
2019/09/29 00:20:29;;;;;;;3.2;2.2;;;;;;;11.16;100;95333.12;;;;
2019/09/29 00:21:30;;;;;;;3.2;2.2;;;;;;;11.16;100;95333.12;;;;
2019/09/29 00:22:32;;;;;;;3.2;2.2;;;;;;;11.16;100;95333.12;;;;
2019/09/29 00:23:33;;;;;;;3.2;2.2;;;;;;;11.16;100;95333.12;;;;
2019/09/29 00:24:34;;;;;;;3.2;2.2;;;;;;;11.16;100;95333.12;;;;
2019/09/29 00:25:35;;;;;;;3.2;2.2;;;;;;;11.16;100;95333.12;;;;
2019/09/29 00:26:36;;;;;;;3.2;2.2;;;;;;;11.16;100;95333.12;;;;
2019/09/29 00:27:38;;;;;;;3.2;2.2;;;;;;;11.16;100;95333.12;;;;
2019/09/29 00:28:39;;;;;;;3.2;2.2;;;;;;;11.16;100;95333.12;;;;
2019/09/29 00:29:40;;;;;;;3.5;2.05;;;;;;;11.08;100;95327.58;;;;
2019/09/29 00:30:41;;;;;;;3.5;2.05;;;;;;;11.08;100;95327.58;;;;
2019/09/29 00:31:43;;;;;;;3.5;2.05;;;;;;;11.08;100;95327.58;;;;
2019/09/29 00:32:44;;;;;;;4.700001;2.2;;;;;;;11.11;100;95323.46;;;;
2019/09/29 00:33:45;;;;;;;4.700001;2.2;;;;;;;11.11;100;95323.46;;;;
2019/09/29 00:34:46;;;;;;;4.700001;2.2;;;;;;;11.11;100;95323.46;;;;
2019/09/29 00:35:48;;;;;;;4.700001;2.2;;;;;;;11.11;100;95323.46;;;;
2019/09/29 00:36:49;;;;;;;4.700001;2.2;;;;;;;11.11;100;95323.46;;;;
2019/09/29 00:37:50;;;;;;;4.700001;2.2;;;;;;;11.11;100;95323.46;;;;
2019/09/29 00:38:51;;;;;;;4.700001;2.2;;;;;;;11.11;100;95323.46;;;;
2019/09/29 00:39:52;;;;;;;4.700001;2.2;;;;;;;11.11;100;95323.46;;;;
2019/09/29 00:40:53;;;;;;;4.700001;2.2;;;;;;;11.11;100;95323.46;;;;
2019/09/29 00:41:55;;;;;;;4.700001;2.2;;;;;;;11.11;100;95323.46;;;;
2019/09/29 00:42:56;;;;;;;3.9;1.9;;;;;;;11.17;100;95324.38;;;;
2019/09/29 00:43:57;;;;;;;3.9;1.9;;;;;;;11.17;100;95324.38;;;;
2019/09/29 00:44:58;;;;;;;3.9;1.9;;;;;;;11.17;100;95324.38;;;;
2019/09/29 00:45:59;;;;;;;3.25;1.85;;;;;;;11.25;100;95314.95;;;;
2019/09/29 00:47:01;;;;;;;3.25;1.85;;;;;;;11.25;100;95314.95;;;;
2019/09/29 00:48:02;;;;;;;3.25;1.85;;;;;;;11.25;100;95314.95;;;;
2019/09/29 00:49:03;;;;;;;4.15;1.9;;;;;;;11.39;100;95319.02;;;;
2019/09/29 00:50:04;;;;;;;4.15;1.9;;;;;;;11.39;100;95319.02;;;;
2019/09/29 00:51:08;;;;;;;3.45;1.85;;;;;;;11.53;100;95312.81;;;;
2019/09/29 00:52:09;;;;;;;3.45;1.85;;;;;;;11.53;100;95312.81;;;;
2019/09/29 00:53:10;;;;;;;3.45;1.85;;;;;;;11.53;100;95312.81;;;;
2019/09/29 00:54:11;;;;;;;2.8;1.8;;;;;;;11.65;100;95305.08;;;;
2019/09/29 00:55:12;;;;;;;2.8;1.8;;;;;;;11.65;100;95305.08;;;;
2019/09/29 00:56:14;;;;;;;5.55;2;;;;;;;11.74;100;95304.88;;;;
2019/09/29 00:57:15;;;;;;;5.55;2;;;;;;;11.74;100;95304.88;;;;
2019/09/29 00:58:16;;;;;;;5.55;2;;;;;;;11.74;100;95304.88;;;;
2019/09/29 00:59:18;;;;;;;5.55;2;;;;;;;11.74;100;95304.88;;;;
2019/09/29 01:00:19;;;;;;;5.55;2;;;;;;;11.74;100;95304.88;;;;
2019/09/29 01:01:21;;;;;;;5.55;2;;;;;;;11.74;100;95304.88;;;;
2019/09/29 01:02:23;;;;;;;5.55;2;;;;;;;11.74;100;95304.88;;;;
2019/09/29 01:03:24;;;;;;;5.55;2;;;;;;;11.74;100;95304.88;;;;
2019/09/29 01:04:25;;;;;;;5.55;2;;;;;;;11.74;100;95304.88;;;;
2019/09/29 01:05:26;;;;;;;5.55;2;;;;;;;11.74;100;95304.88;;;;
2019/09/29 01:06:28;;;;;;;5.55;2;;;;;;;11.74;100;95304.88;;;;
2019/09/29 01:07:29;;;;;;;2.3;1.5;;;;;;;11.76;100;95295.99;;;;
2019/09/29 01:08:31;;;;;;;2.3;1.5;;;;;;;11.76;100;95295.99;;;;
2019/09/29 01:09:32;;;;;;;2.650001;1.7;;;;;;;11.82;100;95294.59;;;;
2019/09/29 01:10:33;;;;;;;2.650001;1.7;;;;;;;11.82;100;95294.59;;;;
2019/09/29 01:11:36;;;;;;;2.650001;1.7;;;;;;;11.82;100;95294.59;;;;
2019/09/29 01:12:37;;;;;;;2.650001;1.7;;;;;;;11.82;100;95294.59;;;;
2019/09/29 01:13:38;;;;;;;2.650001;1.7;;;;;;;11.82;100;95294.59;;;;
2019/09/29 01:14:39;;;;;;;2.650001;1.7;;;;;;;11.82;100;95294.59;;;;
2019/09/29 01:15:41;;;;;;;2.650001;1.7;;;;;;;11.82;100;95294.59;;;;
2019/09/29 01:16:43;;;;;;;2.650001;1.7;;;;;;;11.82;100;95294.59;;;;
2019/09/29 01:17:44;;;;;;;2.650001;1.7;;;;;;;11.82;100;95294.59;;;;
2019/09/29 01:18:45;;;;;;;2.650001;1.7;;;;;;;11.82;100;95294.59;;;;
2019/09/29 01:19:46;;;;;;;2.650001;1.7;;;;;;;11.82;100;95294.59;;;;
2019/09/29 01:21:28;;;;;;;3.1;1.6;;;;;;;11.8;100;95279.55;;;;
2019/09/29 01:22:51;;;;;;;3.1;1.6;;;;;;;11.8;100;95279.55;;;;
2019/09/29 01:23:57;;;;;;;4.45;1.9;;;;;;;11.83;100;95280.02;;;;
2019/09/29 01:25:04;;;;;;;4.45;1.9;;;;;;;11.83;100;95280.02;;;;
2019/09/29 01:26:29;;;;;;;4.45;1.9;;;;;;;11.83;100;95280.02;;;;
2019/09/29 01:27:32;;;;;;;4.45;1.9;;;;;;;11.83;100;95280.02;;;;
2019/09/29 01:28:34;;;;;;;4.45;1.9;;;;;;;11.83;100;95280.02;;;;
2019/09/29 01:29:35;;;;;;;4.45;1.9;;;;;;;11.83;100;95280.02;;;;
2019/09/29 01:30:36;;;;;;;4.45;1.9;;;;;;;11.83;100;95280.02;;;;
2019/09/29 01:31:38;;;;;;;4.45;1.9;;;;;;;11.83;100;95280.02;;;;
2019/09/29 01:32:39;;;;;;;4.45;1.9;;;;;;;11.83;100;95280.02;;;;
2019/09/29 01:33:41;;;;;;;3.5;1.7;;;;;;;11.74;100;95250.37;;;;
2019/09/29 01:34:42;;;;;;;3.5;1.7;;;;;;;11.74;100;95250.37;;;;
2019/09/29 01:35:43;;;;;;;3.5;1.7;;;;;;;11.74;100;95250.37;;;;
2019/09/29 01:36:44;;;;;;;3.25;1.8;;;;;;;11.81;100;95250.2;;;;
2019/09/29 01:37:46;;;;;;;3.25;1.8;;;;;;;11.81;100;95250.2;;;;
2019/09/29 01:38:47;;;;;;;4.049999;2;;;;;;;11.89;100;95249.26;;;;
2019/09/29 01:39:48;;;;;;;4.049999;2;;;;;;;11.89;100;95249.26;;;;
2019/09/29 01:40:49;;;;;;;4.049999;2;;;;;;;11.89;100;95249.26;;;;
2019/09/29 01:41:50;;;;;;;5;1.8;;;;;;;11.97;100;95248.46;;;;
2019/09/29 01:42:52;;;;;;;5;1.8;;;;;;;11.97;100;95248.46;;;;
2019/09/29 01:43:53;;;;;;;5;1.8;;;;;;;11.97;100;95248.46;;;;
2019/09/29 01:44:54;;;;;;;5;1.8;;;;;;;11.97;100;95248.46;;;;
2019/09/29 01:45:55;;;;;;;5;1.8;;;;;;;11.97;100;95248.46;;;;
2019/09/29 01:46:56;;;;;;;5;1.8;;;;;;;11.97;100;95248.46;;;;
2019/09/29 01:47:58;;;;;;;5;1.8;;;;;;;11.97;100;95248.46;;;;
2019/09/29 01:48:59;;;;;;;5;1.8;;;;;;;11.97;100;95248.46;;;;
2019/09/29 01:50:00;;;;;;;5;1.8;;;;;;;11.97;100;95248.46;;;;
2019/09/29 01:51:03;;;;;;;5;1.8;;;;;;;11.97;100;95248.46;;;;
2019/09/29 01:52:04;;;;;;;7.1;2.6;;;;;;;11.65;99.6123;95232.48;;;;
2019/09/29 01:53:05;;;;;;;7.1;2.6;;;;;;;11.65;99.6123;95232.48;;;;
2019/09/29 01:54:07;;;;;;;7.1;2.6;;;;;;;11.65;99.6123;95232.48;;;;
2019/09/29 01:55:08;;;;;;;4.150001;1.7;;;;;;;11.62;100;95229.83;;;;
2019/09/29 01:56:10;;;;;;;4.150001;1.7;;;;;;;11.62;100;95229.83;;;;
2019/09/29 01:57:11;;;;;;;4.150001;1.7;;;;;;;11.62;100;95229.83;;;;
2019/09/29 01:58:12;;;;;;;4.150001;1.7;;;;;;;11.62;100;95229.83;;;;
2019/09/29 01:59:14;;;;;;;4.150001;1.7;;;;;;;11.62;100;95229.83;;;;
2019/09/29 02:00:15;;;;;;;4.150001;1.7;;;;;;;11.62;100;95229.83;;;;
2019/09/29 02:01:19;;;;;;;4.150001;1.7;;;;;;;11.62;100;95229.83;;;;
2019/09/29 02:02:20;;;;;;;4.150001;1.7;;;;;;;11.62;100;95229.83;;;;
2019/09/29 02:03:21;;;;;;;4.150001;1.7;;;;;;;11.62;100;95229.83;;;;
2019/09/29 02:04:23;;;;;;;4.150001;1.7;;;;;;;11.62;100;95229.83;;;;
2019/09/29 02:05:24;;;;;;;3.1;1.4;;;;;;;11.34;99.76563;95207.26;;;;
2019/09/29 02:06:26;;;;;;;3.1;1.4;;;;;;;11.34;99.76563;95207.26;;;;
2019/09/29 02:07:27;;;;;;;3.1;1.4;;;;;;;11.34;99.76563;95207.26;;;;
2019/09/29 02:08:28;;;;;;;2.45;1.5;;;;;;;11.34;100;95203.1;;;;
2019/09/29 02:09:29;;;;;;;2.45;1.5;;;;;;;11.34;100;95203.1;;;;
2019/09/29 02:10:31;;;;;;;2.45;1.5;;;;;;;11.34;100;95203.1;;;;
2019/09/29 02:11:33;;;;;;;2.45;1.5;;;;;;;11.34;100;95203.1;;;;
2019/09/29 02:12:34;;;;;;;2.45;1.5;;;;;;;11.34;100;95203.1;;;;
2019/09/29 02:13:35;;;;;;;2.45;1.5;;;;;;;11.34;100;95203.1;;;;
2019/09/29 02:14:36;;;;;;;2.45;1.5;;;;;;;11.34;100;95203.1;;;;
2019/09/29 02:15:38;;;;;;;2.45;1.5;;;;;;;11.34;100;95203.1;;;;
2019/09/29 02:16:39;;;;;;;2.45;1.5;;;;;;;11.34;100;95203.1;;;;
2019/09/29 02:17:40;;;;;;;2.45;1.5;;;;;;;11.34;100;95203.1;;;;
2019/09/29 02:18:42;;;;;;;3.9;1.8;;;;;;;11.16;99.5332;95195.29;;;;
2019/09/29 02:19:43;;;;;;;3.9;1.8;;;;;;;11.16;99.5332;95195.29;;;;
2019/09/29 02:20:44;;;;;;;3.9;1.8;;;;;;;11.16;99.5332;95195.29;;;;
2019/09/29 02:21:45;;;;;;;4.2;1.9;;;;;;;11.16;100;95195.29;;;;
2019/09/29 02:22:47;;;;;;;4.2;1.9;;;;;;;11.16;100;95195.29;;;;
2019/09/29 02:23:48;;;;;;;4.2;1.9;;;;;;;11.16;100;95195.29;;;;
2019/09/29 02:24:49;;;;;;;4.2;1.9;;;;;;;11.16;100;95195.29;;;;
2019/09/29 02:25:50;;;;;;;4.2;1.9;;;;;;;11.16;100;95195.29;;;;
2019/09/29 02:26:52;;;;;;;4.2;1.9;;;;;;;11.16;100;95195.29;;;;
2019/09/29 02:27:53;;;;;;;4.2;1.9;;;;;;;11.16;100;95195.29;;;;
2019/09/29 02:28:54;;;;;;;4.2;1.9;;;;;;;11.16;100;95195.29;;;;
2019/09/29 02:29:56;;;;;;;4.2;1.9;;;;;;;11.16;100;95195.29;;;;
2019/09/29 02:30:57;;;;;;;4.2;1.9;;;;;;;11.16;100;95195.29;;;;
2019/09/29 02:31:58;;;;;;;4.7;1.9;;;;;;;10.84;99.35645;95200.76;;;;
2019/09/29 02:32:59;;;;;;;4.7;1.9;;;;;;;10.84;99.35645;95200.76;;;;
2019/09/29 02:34:00;;;;;;;4.7;1.9;;;;;;;10.84;99.35645;95200.76;;;;
2019/09/29 02:35:02;;;;;;;2.5;1.8;;;;;;;10.82;100;95206.94;;;;
2019/09/29 02:36:04;;;;;;;2.5;1.8;;;;;;;10.82;100;95206.94;;;;
2019/09/29 02:37:05;;;;;;;2.5;1.8;;;;;;;10.82;100;95206.94;;;;
2019/09/29 02:38:06;;;;;;;2.5;1.8;;;;;;;10.82;100;95206.94;;;;
2019/09/29 02:39:07;;;;;;;2.5;1.8;;;;;;;10.82;100;95206.94;;;;
2019/09/29 02:40:09;;;;;;;2.5;1.8;;;;;;;10.82;100;95206.94;;;;
2019/09/29 02:41:11;;;;;;;2.5;1.8;;;;;;;10.82;100;95206.94;;;;
2019/09/29 02:42:12;;;;;;;2.5;1.8;;;;;;;10.82;100;95206.94;;;;
2019/09/29 02:43:13;;;;;;;2.5;1.8;;;;;;;10.82;100;95206.94;;;;
2019/09/29 02:44:14;;;;;;;2.5;1.8;;;;;;;10.82;100;95206.94;;;;
2019/09/29 02:45:16;;;;;;;4.199999;1.8;;;;;;;10.66;99.72852;95208.62;;;;
2019/09/29 02:46:18;;;;;;;4.199999;1.8;;;;;;;10.66;99.72852;95208.62;;;;
2019/09/29 02:47:19;;;;;;;4.199999;1.8;;;;;;;10.66;99.72852;95208.62;;;;
2019/09/29 02:48:20;;;;;;;3.4;1.75;;;;;;;10.7;100;95203.05;;;;
2019/09/29 02:49:21;;;;;;;3.4;1.75;;;;;;;10.7;100;95203.05;;;;
2019/09/29 02:50:23;;;;;;;3.4;1.75;;;;;;;10.7;100;95203.05;;;;
2019/09/29 02:51:25;;;;;;;3.4;1.75;;;;;;;10.7;100;95203.05;;;;
2019/09/29 02:52:26;;;;;;;3.4;1.75;;;;;;;10.7;100;95203.05;;;;
2019/09/29 02:53:28;;;;;;;3.4;1.75;;;;;;;10.7;100;95203.05;;;;
2019/09/29 02:54:29;;;;;;;3.4;1.75;;;;;;;10.7;100;95203.05;;;;
2019/09/29 02:55:30;;;;;;;3.4;1.75;;;;;;;10.7;100;95203.05;;;;
2019/09/29 02:56:33;;;;;;;3.4;1.75;;;;;;;10.7;100;95203.05;;;;
2019/09/29 02:57:34;;;;;;;3.4;1.75;;;;;;;10.7;100;95203.05;;;;
2019/09/29 02:58:36;;;;;;;3.95;1.85;;;;;;;10.72;100;95199.96;;;;
2019/09/29 02:59:37;;;;;;;3.95;1.85;;;;;;;10.72;100;95199.96;;;;
2019/09/29 03:00:38;;;;;;;3.95;1.85;;;;;;;10.72;100;95199.96;;;;
2019/09/29 03:01:41;;;;;;;3.9;1.8;;;;;;;10.78;100;95204;;;;
2019/09/29 03:02:43;;;;;;;3.9;1.8;;;;;;;10.78;100;95204;;;;
2019/09/29 03:03:44;;;;;;;3.9;1.8;;;;;;;10.78;100;95204;;;;
2019/09/29 03:04:45;;;;;;;3.9;1.8;;;;;;;10.78;100;95204;;;;
2019/09/29 03:05:46;;;;;;;3.9;1.8;;;;;;;10.78;100;95204;;;;
2019/09/29 03:06:50;;;;;;;3.9;1.8;;;;;;;10.78;100;95204;;;;
2019/09/29 03:07:51;;;;;;;3.9;1.8;;;;;;;10.78;100;95204;;;;
2019/09/29 03:08:52;;;;;;;3.9;1.8;;;;;;;10.78;100;95204;;;;
2019/09/29 03:09:53;;;;;;;3.9;1.8;;;;;;;10.78;100;95204;;;;
2019/09/29 03:10:54;;;;;;;3.9;1.8;;;;;;;10.78;100;95204;;;;
2019/09/29 03:11:56;;;;;;;3.45;2.1;;;;;;;10.66;100;95194.7;;;;
2019/09/29 03:12:57;;;;;;;3.45;2.1;;;;;;;10.66;100;95194.7;;;;
2019/09/29 03:13:58;;;;;;;3.45;2.1;;;;;;;10.66;100;95194.7;;;;
2019/09/29 03:15:00;;;;;;;4.55;2;;;;;;;10.64;100;95185.5;;;;
2019/09/29 03:16:01;;;;;;;4.55;2;;;;;;;10.64;100;95185.5;;;;
2019/09/29 03:17:02;;;;;;;4.55;2;;;;;;;10.64;100;95185.5;;;;
2019/09/29 03:18:04;;;;;;;4.55;2;;;;;;;10.64;100;95185.5;;;;
2019/09/29 03:19:05;;;;;;;4.55;2;;;;;;;10.64;100;95185.5;;;;
2019/09/29 03:20:07;;;;;;;4.55;2;;;;;;;10.64;100;95185.5;;;;
2019/09/29 03:21:09;;;;;;;4.55;2;;;;;;;10.64;100;95185.5;;;;
2019/09/29 03:22:10;;;;;;;4.55;2;;;;;;;10.64;100;95185.5;;;;
2019/09/29 03:23:11;;;;;;;4.55;2;;;;;;;10.64;100;95185.5;;;;
2019/09/29 03:24:13;;;;;;;4.55;2;;;;;;;10.64;100;95185.5;;;;
2019/09/29 03:25:14;;;;;;;4.3;2.1;;;;;;;10.3;100;95179.22;;;;
2019/09/29 03:26:22;;;;;;;4.3;2.1;;;;;;;10.3;100;95179.22;;;;
2019/09/29 03:27:25;;;;;;;3.65;2.1;;;;;;;10.26;100;95177.52;;;;
2019/09/29 03:28:26;;;;;;;3.65;2.1;;;;;;;10.26;100;95177.52;;;;
2019/09/29 03:29:28;;;;;;;3.65;2.1;;;;;;;10.26;100;95177.52;;;;
2019/09/29 03:30:29;;;;;;;3.65;2.1;;;;;;;10.26;100;95177.52;;;;
2019/09/29 03:31:30;;;;;;;3.65;2.1;;;;;;;10.26;100;95177.52;;;;
2019/09/29 03:32:32;;;;;;;3.65;2.1;;;;;;;10.26;100;95177.52;;;;
2019/09/29 03:33:33;;;;;;;3.65;2.1;;;;;;;10.26;100;95177.52;;;;
2019/09/29 03:34:34;;;;;;;3.65;2.1;;;;;;;10.26;100;95177.52;;;;
2019/09/29 03:35:35;;;;;;;3.65;2.1;;;;;;;10.26;100;95177.52;;;;
2019/09/29 03:36:36;;;;;;;3.65;2.1;;;;;;;10.26;100;95177.52;;;;
2019/09/29 03:37:37;;;;;;;3.65;2.1;;;;;;;10.26;100;95177.52;;;;
2019/09/29 03:38:38;;;;;;;5.6;2.2;;;;;;;9.91;100;95170.75;;;;
2019/09/29 03:39:40;;;;;;;5.6;2.2;;;;;;;9.91;100;95170.75;;;;
2019/09/29 03:40:41;;;;;;;5.05;2.4;;;;;;;9.89;100;95163.04;;;;
2019/09/29 03:41:42;;;;;;;5.05;2.4;;;;;;;9.89;100;95163.04;;;;
2019/09/29 03:42:43;;;;;;;5.05;2.4;;;;;;;9.89;100;95163.04;;;;
2019/09/29 03:43:45;;;;;;;5.05;2.4;;;;;;;9.89;100;95163.04;;;;
2019/09/29 03:44:46;;;;;;;5.05;2.4;;;;;;;9.89;100;95163.04;;;;
2019/09/29 03:45:47;;;;;;;5.05;2.4;;;;;;;9.89;100;95163.04;;;;
2019/09/29 03:46:49;;;;;;;5.05;2.4;;;;;;;9.89;100;95163.04;;;;
2019/09/29 03:47:50;;;;;;;5.05;2.4;;;;;;;9.89;100;95163.04;;;;
2019/09/29 03:48:51;;;;;;;5.05;2.4;;;;;;;9.89;100;95163.04;;;;
2019/09/29 03:49:52;;;;;;;5.05;2.4;;;;;;;9.89;100;95163.04;;;;
2019/09/29 03:50:53;;;;;;;5.05;2.4;;;;;;;9.89;100;95163.04;;;;
2019/09/29 03:51:54;;;;;;;3.35;2.2;;;;;;;9.58;100;95161.08;;;;
2019/09/29 03:52:55;;;;;;;3.35;2.2;;;;;;;9.58;100;95161.08;;;;
2019/09/29 03:53:56;;;;;;;3.35;2.2;;;;;;;9.58;100;95161.08;;;;
2019/09/29 03:54:58;;;;;;;3.35;2.2;;;;;;;9.58;100;95161.08;;;;
2019/09/29 03:55:59;;;;;;;3.35;2.2;;;;;;;9.58;100;95161.08;;;;
2019/09/29 03:57:00;;;;;;;3.35;2.2;;;;;;;9.58;100;95161.08;;;;
2019/09/29 03:58:01;;;;;;;3.35;2.2;;;;;;;9.58;100;95161.08;;;;
2019/09/29 03:59:03;;;;;;;3.35;2.2;;;;;;;9.58;100;95161.08;;;;
2019/09/29 04:00:04;;;;;;;3.35;2.2;;;;;;;9.58;100;95161.08;;;;
2019/09/29 04:01:07;;;;;;;3.35;2.2;;;;;;;9.58;100;95161.08;;;;
2019/09/29 04:02:09;;;;;;;3.45;2.1;;;;;;;9.4;100;95138.67;;;;
2019/09/29 04:03:10;;;;;;;3.45;2.1;;;;;;;9.4;100;95138.67;;;;
2019/09/29 04:04:11;;;;;;;3.45;2.1;;;;;;;9.4;100;95138.67;;;;
2019/09/29 04:05:12;;;;;;;3.45;2.1;;;;;;;9.4;100;95138.67;;;;
2019/09/29 04:06:14;;;;;;;3.45;2.1;;;;;;;9.4;100;95138.67;;;;
2019/09/29 04:07:15;;;;;;;3.45;2.1;;;;;;;9.4;100;95138.67;;;;
2019/09/29 04:08:16;;;;;;;3.45;2.1;;;;;;;9.4;100;95138.67;;;;
2019/09/29 04:09:18;;;;;;;3.45;2.1;;;;;;;9.4;100;95138.67;;;;
2019/09/29 04:10:19;;;;;;;3.45;2.1;;;;;;;9.4;100;95138.67;;;;
2019/09/29 04:11:21;;;;;;;3.45;2.1;;;;;;;9.4;100;95138.67;;;;
2019/09/29 04:12:22;;;;;;;3.45;2.1;;;;;;;9.4;100;95138.67;;;;
2019/09/29 04:13:23;;;;;;;6.1;2.35;;;;;;;9.23;100;95118.42;;;;
2019/09/29 04:14:24;;;;;;;6.1;2.35;;;;;;;9.23;100;95118.42;;;;
2019/09/29 04:15:26;;;;;;;6.1;2.35;;;;;;;9.23;100;95118.42;;;;
2019/09/29 04:16:27;;;;;;;6.1;2.35;;;;;;;9.23;100;95118.42;;;;
2019/09/29 04:17:28;;;;;;;6.1;2.35;;;;;;;9.23;100;95118.42;;;;
2019/09/29 04:18:29;;;;;;;6.1;2.35;;;;;;;9.23;100;95118.42;;;;
2019/09/29 04:19:30;;;;;;;6.1;2.35;;;;;;;9.23;100;95118.42;;;;
2019/09/29 04:20:32;;;;;;;6.1;2.35;;;;;;;9.23;100;95118.42;;;;
2019/09/29 04:21:35;;;;;;;6.1;2.35;;;;;;;9.23;100;95118.42;;;;
2019/09/29 04:22:36;;;;;;;6.1;2.35;;;;;;;9.23;100;95118.42;;;;
2019/09/29 04:23:38;;;;;;;5.6;2.7;;;;;;;9.15;100;95115.14;;;;
2019/09/29 04:24:39;;;;;;;5.6;2.7;;;;;;;9.15;100;95115.14;;;;
2019/09/29 04:25:40;;;;;;;5.6;2.7;;;;;;;9.15;100;95115.14;;;;
2019/09/29 04:26:41;;;;;;;5.6;2.7;;;;;;;9.15;100;95115.14;;;;
2019/09/29 04:27:42;;;;;;;5.6;2.7;;;;;;;9.15;100;95115.14;;;;
2019/09/29 04:28:43;;;;;;;5.6;2.7;;;;;;;9.15;100;95115.14;;;;
2019/09/29 04:29:44;;;;;;;5.6;2.7;;;;;;;9.15;100;95115.14;;;;
2019/09/29 04:30:46;;;;;;;5.6;2.7;;;;;;;9.15;100;95115.14;;;;
2019/09/29 04:31:47;;;;;;;5.6;2.7;;;;;;;9.15;100;95115.14;;;;
2019/09/29 04:32:48;;;;;;;5.6;2.7;;;;;;;9.15;100;95115.14;;;;
2019/09/29 04:33:49;;;;;;;4.799999;2.9;;;;;;;9.01;100;95111.54;;;;
2019/09/29 04:34:50;;;;;;;4.799999;2.9;;;;;;;9.01;100;95111.54;;;;
2019/09/29 04:35:54;;;;;;;4.799999;2.9;;;;;;;9.01;100;95111.54;;;;
2019/09/29 04:36:56;;;;;;;4.799999;2.9;;;;;;;9.01;100;95111.54;;;;
2019/09/29 04:37:57;;;;;;;4.799999;2.9;;;;;;;9.01;100;95111.54;;;;
2019/09/29 04:38:58;;;;;;;4.799999;2.9;;;;;;;9.01;100;95111.54;;;;
2019/09/29 04:39:59;;;;;;;4.799999;2.9;;;;;;;9.01;100;95111.54;;;;
2019/09/29 04:41:00;;;;;;;4.799999;2.9;;;;;;;9.01;100;95111.54;;;;
2019/09/29 04:42:01;;;;;;;4.799999;2.9;;;;;;;9.01;100;95111.54;;;;
2019/09/29 04:43:03;;;;;;;4.799999;2.9;;;;;;;9.01;100;95111.54;;;;
2019/09/29 04:44:04;;;;;;;4.799999;2.9;;;;;;;9.01;100;95111.54;;;;
2019/09/29 04:45:05;;;;;;;4.349999;2.6;;;;;;;8.95;100;95113.69;;;;
2019/09/29 04:46:07;;;;;;;4.349999;2.6;;;;;;;8.95;100;95113.69;;;;
2019/09/29 04:47:08;;;;;;;4.349999;2.6;;;;;;;8.95;100;95113.69;;;;
2019/09/29 04:48:09;;;;;;;4.349999;2.6;;;;;;;8.95;100;95113.69;;;;
2019/09/29 04:49:10;;;;;;;4.349999;2.6;;;;;;;8.95;100;95113.69;;;;
2019/09/29 04:50:12;;;;;;;4.349999;2.6;;;;;;;8.95;100;95113.69;;;;
2019/09/29 04:51:14;;;;;;;4.349999;2.6;;;;;;;8.95;100;95113.69;;;;
2019/09/29 04:52:15;;;;;;;4.349999;2.6;;;;;;;8.95;100;95113.69;;;;
2019/09/29 04:53:16;;;;;;;4.349999;2.6;;;;;;;8.95;100;95113.69;;;;
2019/09/29 04:54:17;;;;;;;4.349999;2.6;;;;;;;8.95;100;95113.69;;;;
2019/09/29 04:55:18;;;;;;;5.6;2.6;;;;;;;8.84;100;95097.08;;;;
2019/09/29 04:56:25;;;;;;;5.6;2.6;;;;;;;8.84;100;95097.08;;;;
2019/09/29 04:57:27;;;;;;;5.6;2.6;;;;;;;8.84;100;95097.08;;;;
2019/09/29 04:58:28;;;;;;;5.6;2.6;;;;;;;8.84;100;95097.08;;;;
2019/09/29 04:59:29;;;;;;;5.6;2.6;;;;;;;8.84;100;95097.08;;;;
2019/09/29 05:00:30;;;;;;;5.6;2.6;;;;;;;8.84;100;95097.08;;;;
2019/09/29 05:01:32;;;;;;;5.6;2.6;;;;;;;8.84;100;95097.08;;;;
2019/09/29 05:02:33;;;;;;;5.6;2.6;;;;;;;8.84;100;95097.08;;;;
2019/09/29 05:03:34;;;;;;;5.6;2.6;;;;;;;8.84;100;95097.08;;;;
2019/09/29 05:04:35;;;;;;;5.6;2.6;;;;;;;8.84;100;95097.08;;;;
2019/09/29 05:05:36;;;;;;;6.1;3.1;;;;;;;8.85;100;95088.76;;;;
2019/09/29 05:06:37;;;;;;;6.1;3.1;;;;;;;8.85;100;95088.76;;;;
2019/09/29 05:07:38;;;;;;;6.1;3.1;;;;;;;8.85;100;95088.76;;;;
2019/09/29 05:08:40;;;;;;;6.1;3.1;;;;;;;8.85;100;95088.76;;;;
2019/09/29 05:09:41;;;;;;;6.1;3.1;;;;;;;8.85;100;95088.76;;;;
2019/09/29 05:10:42;;;;;;;6.1;3.1;;;;;;;8.85;100;95088.76;;;;
2019/09/29 05:11:43;;;;;;;6.1;3.1;;;;;;;8.85;100;95088.76;;;;
2019/09/29 05:12:45;;;;;;;6.1;3.1;;;;;;;8.85;100;95088.76;;;;
2019/09/29 05:13:46;;;;;;;6.1;3.1;;;;;;;8.85;100;95088.76;;;;
2019/09/29 05:14:47;;;;;;;6.1;3.1;;;;;;;8.85;100;95088.76;;;;
2019/09/29 05:15:48;;;;;;;6.1;3.1;;;;;;;8.85;100;95088.76;;;;
2019/09/29 05:16:49;;;;;;;5.25;2.6;;;;;;;8.81;100;95088.95;;;;
2019/09/29 05:17:50;;;;;;;5.25;2.6;;;;;;;8.81;100;95088.95;;;;
2019/09/29 05:18:51;;;;;;;5.25;2.6;;;;;;;8.81;100;95088.95;;;;
2019/09/29 05:19:53;;;;;;;5.25;2.6;;;;;;;8.81;100;95088.95;;;;
2019/09/29 05:20:54;;;;;;;5.25;2.6;;;;;;;8.81;100;95088.95;;;;
2019/09/29 05:21:55;;;;;;;5.25;2.6;;;;;;;8.81;100;95088.95;;;;
2019/09/29 05:22:56;;;;;;;5.25;2.6;;;;;;;8.81;100;95088.95;;;;
2019/09/29 05:23:57;;;;;;;5.25;2.6;;;;;;;8.81;100;95088.95;;;;
2019/09/29 05:24:58;;;;;;;5.25;2.6;;;;;;;8.81;100;95088.95;;;;
2019/09/29 05:25:59;;;;;;;5.25;2.6;;;;;;;8.81;100;95088.95;;;;
2019/09/29 05:27:00;;;;;;;3.55;2.65;;;;;;;8.82;100;95070.9;;;;
2019/09/29 05:28:02;;;;;;;3.55;2.65;;;;;;;8.82;100;95070.9;;;;
2019/09/29 05:29:03;;;;;;;3.55;2.65;;;;;;;8.82;100;95070.9;;;;
2019/09/29 05:30:04;;;;;;;3.55;2.65;;;;;;;8.82;100;95070.9;;;;
2019/09/29 05:31:06;;;;;;;3.55;2.65;;;;;;;8.82;100;95070.9;;;;
2019/09/29 05:32:08;;;;;;;3.55;2.65;;;;;;;8.82;100;95070.9;;;;
2019/09/29 05:33:09;;;;;;;3.55;2.65;;;;;;;8.82;100;95070.9;;;;
2019/09/29 05:34:10;;;;;;;3.55;2.65;;;;;;;8.82;100;95070.9;;;;
2019/09/29 05:35:11;;;;;;;3.55;2.65;;;;;;;8.82;100;95070.9;;;;
2019/09/29 05:36:13;;;;;;;3.55;2.65;;;;;;;8.82;100;95070.9;;;;
2019/09/29 05:37:14;;;;;;;3.55;2.65;;;;;;;8.82;100;95070.9;;;;
2019/09/29 05:38:15;;;;;;;6.2;3;;;;;;;8.83;100;95064.36;;;;
2019/09/29 05:39:16;;;;;;;6.2;3;;;;;;;8.83;100;95064.36;;;;
2019/09/29 05:40:17;;;;;;;6.2;3;;;;;;;8.83;100;95064.36;;;;
2019/09/29 05:41:20;;;;;;;6.2;3;;;;;;;8.83;100;95064.36;;;;
2019/09/29 05:42:21;;;;;;;6.2;3;;;;;;;8.83;100;95064.36;;;;
2019/09/29 05:43:22;;;;;;;6.2;3;;;;;;;8.83;100;95064.36;;;;
2019/09/29 05:44:26;;;;;;;6.2;3;;;;;;;8.83;100;95064.36;;;;
2019/09/29 05:45:27;;;;;;;6.2;3;;;;;;;8.83;100;95064.36;;;;
2019/09/29 05:46:28;;;;;;;6.2;3;;;;;;;8.83;100;95064.36;;;;
2019/09/29 05:47:30;;;;;;;6.2;3;;;;;;;8.83;100;95064.36;;;;
2019/09/29 05:48:31;;;;;;;4.65;3.15;;;;;;;8.99;100;95059.27;;;;
2019/09/29 05:49:32;;;;;;;4.65;3.15;;;;;;;8.99;100;95059.27;;;;
2019/09/29 05:50:33;;;;;;;4.65;3.15;;;;;;;8.99;100;95059.27;;;;
2019/09/29 05:51:34;;;;;;;4.65;3.15;;;;;;;8.99;100;95059.27;;;;
2019/09/29 05:52:35;;;;;;;4.65;3.15;;;;;;;8.99;100;95059.27;;;;
2019/09/29 05:53:37;;;;;;;4.65;3.15;;;;;;;8.99;100;95059.27;;;;
2019/09/29 05:54:38;;;;;;;4.65;3.15;;;;;;;8.99;100;95059.27;;;;
2019/09/29 05:55:39;;;;;;;4.65;3.15;;;;;;;8.99;100;95059.27;;;;
2019/09/29 05:56:40;;;;;;;4.65;3.15;;;;;;;8.99;100;95059.27;;;;
2019/09/29 05:57:42;;;;;;;4.65;3.15;;;;;;;8.99;100;95059.27;;;;
2019/09/29 05:58:43;;;;;;;4.5;2.8;;;;;;;9.17;100;95061.97;;;;
2019/09/29 05:59:44;;;;;;;4.5;2.8;;;;;;;9.17;100;95061.97;;;;
2019/09/29 06:00:45;;;;;;;4.5;2.8;;;;;;;9.17;100;95061.97;;;;
2019/09/29 06:01:48;;;;;;;4.5;2.8;;;;;;;9.17;100;95061.97;;;;
2019/09/29 06:02:49;;;;;;;4.5;2.8;;;;;;;9.17;100;95061.97;;;;
2019/09/29 06:03:50;;;;;;;4.5;2.8;;;;;;;9.17;100;95061.97;;;;
2019/09/29 06:04:52;;;;;;;4.5;2.8;;;;;;;9.17;100;95061.97;;;;
2019/09/29 06:05:53;;;;;;;4.5;2.8;;;;;;;9.17;100;95061.97;;;;
2019/09/29 06:06:54;;;;;;;4.5;2.8;;;;;;;9.17;100;95061.97;;;;
2019/09/29 06:07:55;;;;;;;4.5;2.8;;;;;;;9.17;100;95061.97;;;;
2019/09/29 06:08:56;;;;;;;4.5;2.8;;;;;;;9.17;100;95061.97;;;;
2019/09/29 06:09:57;;;;;;;3.85;2.900001;;;;;;;9.53;100;95057.31;;;;
2019/09/29 06:10:58;;;;;;;3.85;2.900001;;;;;;;9.53;100;95057.31;;;;
2019/09/29 06:11:59;;;;;;;3.85;2.900001;;;;;;;9.53;100;95057.31;;;;
2019/09/29 06:13:01;;;;;;;3.85;2.900001;;;;;;;9.53;100;95057.31;;;;
2019/09/29 06:14:02;;;;;;;3.85;2.900001;;;;;;;9.53;100;95057.31;;;;
2019/09/29 06:15:04;;;;;;;3.85;2.900001;;;;;;;9.53;100;95057.31;;;;
2019/09/29 06:16:06;;;;;;;3.85;2.900001;;;;;;;9.53;100;95057.31;;;;
2019/09/29 06:17:07;;;;;;;3.85;2.900001;;;;;;;9.53;100;95057.31;;;;
2019/09/29 06:18:08;;;;;;;3.85;2.900001;;;;;;;9.53;100;95057.31;;;;
2019/09/29 06:19:10;;;;;;;3.85;2.900001;;;;;;;9.53;100;95057.31;;;;
2019/09/29 06:20:11;;;;;;;4.25;2.4;;;;;;;9.83;100;95043.14;;;;
2019/09/29 06:21:15;;;;;;;4.25;2.4;;;;;;;9.83;100;95043.14;;;;
2019/09/29 06:22:16;;;;;;;4.25;2.4;;;;;;;9.83;100;95043.14;;;;
2019/09/29 06:23:17;;;;;;;4.25;2.4;;;;;;;9.83;100;95043.14;;;;